sensor_id;sensor_type;location;lat;lon;timestamp;P1;durP1;ratioP1;P2;durP2;ratioP2
22883;SDS011;13386;24.786;110.488;2023-03-21T00:01:35;121.22;;;37.03;;
22883;SDS011;13386;24.786;110.488;2023-03-21T00:04:07;120.50;;;35.83;;
22883;SDS011;13386;24.786;110.488;2023-03-21T00:06:38;111.30;;;33.47;;
22883;SDS011;13386;24.786;110.488;2023-03-21T00:09:08;111.93;;;35.00;;
22883;SDS011;13386;24.786;110.488;2023-03-21T00:11:41;109.07;;;33.28;;
22883;SDS011;13386;24.786;110.488;2023-03-21T00:14:11;107.97;;;34.60;;
22883;SDS011;13386;24.786;110.488;2023-03-21T00:16:44;103.15;;;32.75;;
22883;SDS011;13386;24.786;110.488;2023-03-21T00:19:18;113.18;;;34.05;;
22883;SDS011;13386;24.786;110.488;2023-03-21T00:21:50;132.90;;;36.90;;
22883;SDS011;13386;24.786;110.488;2023-03-21T00:24:21;128.25;;;36.22;;
22883;SDS011;13386;24.786;110.488;2023-03-21T00:26:51;116.03;;;35.00;;
22883;SDS011;13386;24.786;110.488;2023-03-21T00:29:22;126.72;;;36.00;;
22883;SDS011;13386;24.786;110.488;2023-03-21T00:31:52;127.53;;;35.53;;
22883;SDS011;13386;24.786;110.488;2023-03-21T00:34:26;118.13;;;33.30;;
22883;SDS011;13386;24.786;110.488;2023-03-21T00:37:01;98.63;;;30.23;;
22883;SDS011;13386;24.786;110.488;2023-03-21T00:39:33;97.93;;;30.33;;
22883;SDS011;13386;24.786;110.488;2023-03-21T00:42:03;101.35;;;30.10;;
22883;SDS011;13386;24.786;110.488;2023-03-21T00:44:33;99.85;;;29.38;;
22883;SDS011;13386;24.786;110.488;2023-03-21T00:47:06;80.72;;;25.45;;
22883;SDS011;13386;24.786;110.488;2023-03-21T00:49:38;75.13;;;25.63;;
22883;SDS011;13386;24.786;110.488;2023-03-21T00:52:08;80.53;;;25.70;;
22883;SDS011;13386;24.786;110.488;2023-03-21T00:54:38;69.25;;;23.60;;
22883;SDS011;13386;24.786;110.488;2023-03-21T00:57:09;73.55;;;25.52;;
22883;SDS011;13386;24.786;110.488;2023-03-21T00:59:39;74.85;;;25.42;;
22883;SDS011;13386;24.786;110.488;2023-03-21T01:02:09;81.03;;;26.27;;
22883;SDS011;13386;24.786;110.488;2023-03-21T01:04:50;65.75;;;22.65;;
22883;SDS011;13386;24.786;110.488;2023-03-21T01:07:20;69.47;;;25.05;;
22883;SDS011;13386;24.786;110.488;2023-03-21T01:09:50;69.30;;;24.45;;
22883;SDS011;13386;24.786;110.488;2023-03-21T01:12:20;75.07;;;26.25;;
22883;SDS011;13386;24.786;110.488;2023-03-21T01:14:50;63.90;;;22.83;;
22883;SDS011;13386;24.786;110.488;2023-03-21T01:17:21;69.05;;;23.95;;
22883;SDS011;13386;24.786;110.488;2023-03-21T01:19:52;70.82;;;24.40;;
22883;SDS011;13386;24.786;110.488;2023-03-21T01:22:23;74.80;;;24.25;;
22883;SDS011;13386;24.786;110.488;2023-03-21T01:24:53;78.15;;;25.55;;
22883;SDS011;13386;24.786;110.488;2023-03-21T01:27:24;69.57;;;24.70;;
22883;SDS011;13386;24.786;110.488;2023-03-21T01:29:54;74.47;;;24.35;;
22883;SDS011;13386;24.786;110.488;2023-03-21T01:32:24;75.05;;;25.25;;
22883;SDS011;13386;24.786;110.488;2023-03-21T01:35:00;77.35;;;24.45;;
22883;SDS011;13386;24.786;110.488;2023-03-21T01:37:30;67.88;;;24.23;;
22883;SDS011;13386;24.786;110.488;2023-03-21T01:40:00;73.32;;;25.02;;
22883;SDS011;13386;24.786;110.488;2023-03-21T01:42:31;71.53;;;23.38;;
22883;SDS011;13386;24.786;110.488;2023-03-21T01:45:03;69.25;;;24.25;;
22883;SDS011;13386;24.786;110.488;2023-03-21T01:47:46;70.05;;;24.38;;
22883;SDS011;13386;24.786;110.488;2023-03-21T01:50:35;77.32;;;23.85;;
22883;SDS011;13386;24.786;110.488;2023-03-21T01:53:19;66.82;;;25.02;;
22883;SDS011;13386;24.786;110.488;2023-03-21T01:55:49;77.88;;;24.60;;
22883;SDS011;13386;24.786;110.488;2023-03-21T01:58:42;66.22;;;23.38;;
22883;SDS011;13386;24.786;110.488;2023-03-21T02:01:42;70.68;;;22.63;;
22883;SDS011;13386;24.786;110.488;2023-03-21T02:04:15;70.38;;;23.45;;
22883;SDS011;13386;24.786;110.488;2023-03-21T02:07:03;67.70;;;23.27;;
22883;SDS011;13386;24.786;110.488;2023-03-21T02:09:54;68.78;;;22.15;;
22883;SDS011;13386;24.786;110.488;2023-03-21T02:12:25;61.97;;;21.67;;
22883;SDS011;13386;24.786;110.488;2023-03-21T02:14:56;62.38;;;21.42;;
22883;SDS011;13386;24.786;110.488;2023-03-21T02:17:51;59.20;;;21.52;;
22883;SDS011;13386;24.786;110.488;2023-03-21T02:20:46;64.45;;;21.92;;
22883;SDS011;13386;24.786;110.488;2023-03-21T02:23:48;63.67;;;22.00;;
22883;SDS011;13386;24.786;110.488;2023-03-21T02:26:33;61.97;;;20.80;;
22883;SDS011;13386;24.786;110.488;2023-03-21T02:29:08;57.95;;;20.55;;
22883;SDS011;13386;24.786;110.488;2023-03-21T02:31:45;61.13;;;22.05;;
22883;SDS011;13386;24.786;110.488;2023-03-21T02:37:11;51.13;;;19.52;;
22883;SDS011;13386;24.786;110.488;2023-03-21T02:39:47;59.38;;;22.05;;
22883;SDS011;13386;24.786;110.488;2023-03-21T02:44:48;61.13;;;19.70;;
22883;SDS011;13386;24.786;110.488;2023-03-21T02:47:24;61.45;;;20.80;;
22883;SDS011;13386;24.786;110.488;2023-03-21T02:49:57;53.03;;;18.77;;
22883;SDS011;13386;24.786;110.488;2023-03-21T02:52:34;57.53;;;20.90;;
22883;SDS011;13386;24.786;110.488;2023-03-21T02:55:07;67.05;;;22.52;;
22883;SDS011;13386;24.786;110.488;2023-03-21T02:57:45;53.30;;;20.08;;
22883;SDS011;13386;24.786;110.488;2023-03-21T03:00:17;58.25;;;20.98;;
22883;SDS011;13386;24.786;110.488;2023-03-21T03:02:50;60.83;;;20.95;;
22883;SDS011;13386;24.786;110.488;2023-03-21T03:05:22;66.97;;;22.17;;
22883;SDS011;13386;24.786;110.488;2023-03-21T03:08:01;58.13;;;21.00;;
22883;SDS011;13386;24.786;110.488;2023-03-21T03:10:40;61.45;;;23.15;;
22883;SDS011;13386;24.786;110.488;2023-03-21T03:13:17;56.45;;;20.35;;
22883;SDS011;13386;24.786;110.488;2023-03-21T03:15:55;64.25;;;22.40;;
22883;SDS011;13386;24.786;110.488;2023-03-21T03:18:33;63.30;;;21.63;;
22883;SDS011;13386;24.786;110.488;2023-03-21T03:21:07;71.05;;;24.33;;
22883;SDS011;13386;24.786;110.488;2023-03-21T03:23:42;61.88;;;22.02;;
22883;SDS011;13386;24.786;110.488;2023-03-21T03:26:14;61.70;;;21.40;;
22883;SDS011;13386;24.786;110.488;2023-03-21T03:28:47;66.25;;;22.10;;
22883;SDS011;13386;24.786;110.488;2023-03-21T03:31:20;61.55;;;22.67;;
22883;SDS011;13386;24.786;110.488;2023-03-21T03:33:57;64.30;;;24.27;;
22883;SDS011;13386;24.786;110.488;2023-03-21T03:36:29;64.30;;;22.13;;
22883;SDS011;13386;24.786;110.488;2023-03-21T03:39:11;64.55;;;22.95;;
22883;SDS011;13386;24.786;110.488;2023-03-21T03:41:46;65.85;;;22.60;;
22883;SDS011;13386;24.786;110.488;2023-03-21T03:44:20;66.30;;;23.90;;
22883;SDS011;13386;24.786;110.488;2023-03-21T03:46:57;57.55;;;22.23;;
22883;SDS011;13386;24.786;110.488;2023-03-21T03:49:30;65.10;;;23.70;;
22883;SDS011;13386;24.786;110.488;2023-03-21T03:52:07;63.58;;;23.52;;
22883;SDS011;13386;24.786;110.488;2023-03-21T03:54:48;66.95;;;23.23;;
22883;SDS011;13386;24.786;110.488;2023-03-21T03:57:20;70.40;;;23.17;;
22883;SDS011;13386;24.786;110.488;2023-03-21T03:59:50;67.80;;;24.08;;
22883;SDS011;13386;24.786;110.488;2023-03-21T04:02:50;73.32;;;24.10;;
22883;SDS011;13386;24.786;110.488;2023-03-21T04:05:23;68.97;;;23.98;;
22883;SDS011;13386;24.786;110.488;2023-03-21T04:07:54;67.53;;;23.33;;
22883;SDS011;13386;24.786;110.488;2023-03-21T04:10:34;89.88;;;26.58;;
22883;SDS011;13386;24.786;110.488;2023-03-21T04:13:05;75.43;;;25.17;;
22883;SDS011;13386;24.786;110.488;2023-03-21T04:15:53;63.53;;;22.05;;
22883;SDS011;13386;24.786;110.488;2023-03-21T04:18:23;65.10;;;23.25;;
22883;SDS011;13386;24.786;110.488;2023-03-21T04:20:55;59.67;;;21.15;;
22883;SDS011;13386;24.786;110.488;2023-03-21T04:23:28;55.08;;;20.77;;
22883;SDS011;13386;24.786;110.488;2023-03-21T04:26:00;56.45;;;20.92;;
22883;SDS011;13386;24.786;110.488;2023-03-21T04:28:38;53.40;;;18.52;;
22883;SDS011;13386;24.786;110.488;2023-03-21T04:31:29;54.05;;;18.38;;
22883;SDS011;13386;24.786;110.488;2023-03-21T04:34:11;50.58;;;17.45;;
22883;SDS011;13386;24.786;110.488;2023-03-21T04:36:47;55.72;;;19.33;;
22883;SDS011;13386;24.786;110.488;2023-03-21T04:39:20;46.00;;;18.65;;
22883;SDS011;13386;24.786;110.488;2023-03-21T04:41:55;52.15;;;20.50;;
22883;SDS011;13386;24.786;110.488;2023-03-21T04:44:42;49.83;;;19.25;;
22883;SDS011;13386;24.786;110.488;2023-03-21T04:47:14;52.15;;;18.80;;
22883;SDS011;13386;24.786;110.488;2023-03-21T04:49:47;62.38;;;19.73;;
22883;SDS011;13386;24.786;110.488;2023-03-21T04:52:19;50.83;;;19.13;;
22883;SDS011;13386;24.786;110.488;2023-03-21T04:54:50;44.22;;;17.90;;
22883;SDS011;13386;24.786;110.488;2023-03-21T04:57:22;47.20;;;18.85;;
22883;SDS011;13386;24.786;110.488;2023-03-21T04:59:53;54.08;;;17.92;;
22883;SDS011;13386;24.786;110.488;2023-03-21T05:02:23;55.05;;;17.25;;
22883;SDS011;13386;24.786;110.488;2023-03-21T05:04:56;47.20;;;18.25;;
22883;SDS011;13386;24.786;110.488;2023-03-21T05:07:26;46.25;;;17.23;;
22883;SDS011;13386;24.786;110.488;2023-03-21T05:10:09;46.70;;;17.40;;
22883;SDS011;13386;24.786;110.488;2023-03-21T05:12:54;44.42;;;17.70;;
22883;SDS011;13386;24.786;110.488;2023-03-21T05:15:24;48.20;;;18.13;;
22883;SDS011;13386;24.786;110.488;2023-03-21T05:17:56;49.75;;;20.10;;
22883;SDS011;13386;24.786;110.488;2023-03-21T05:20:43;45.55;;;17.35;;
22883;SDS011;13386;24.786;110.488;2023-03-21T05:23:23;44.60;;;16.95;;
22883;SDS011;13386;24.786;110.488;2023-03-21T05:26:05;45.70;;;17.15;;
22883;SDS011;13386;24.786;110.488;2023-03-21T05:28:49;47.55;;;17.00;;
22883;SDS011;13386;24.786;110.488;2023-03-21T05:31:20;44.03;;;17.40;;
22883;SDS011;13386;24.786;110.488;2023-03-21T05:34:04;44.67;;;15.48;;
22883;SDS011;13386;24.786;110.488;2023-03-21T05:36:38;42.78;;;16.10;;
22883;SDS011;13386;24.786;110.488;2023-03-21T05:39:10;39.83;;;15.05;;
22883;SDS011;13386;24.786;110.488;2023-03-21T05:41:46;41.08;;;16.33;;
22883;SDS011;13386;24.786;110.488;2023-03-21T05:44:23;41.92;;;16.15;;
22883;SDS011;13386;24.786;110.488;2023-03-21T05:46:59;43.53;;;16.58;;
22883;SDS011;13386;24.786;110.488;2023-03-21T05:49:38;47.38;;;16.58;;
22883;SDS011;13386;24.786;110.488;2023-03-21T05:52:08;43.53;;;16.15;;
22883;SDS011;13386;24.786;110.488;2023-03-21T05:54:39;36.80;;;14.88;;
22883;SDS011;13386;24.786;110.488;2023-03-21T05:57:11;40.33;;;16.67;;
22883;SDS011;13386;24.786;110.488;2023-03-21T06:00:07;36.88;;;14.38;;
22883;SDS011;13386;24.786;110.488;2023-03-21T06:02:43;26.95;;;10.02;;
22883;SDS011;13386;24.786;110.488;2023-03-21T06:05:43;41.47;;;15.77;;
22883;SDS011;13386;24.786;110.488;2023-03-21T06:08:19;47.80;;;17.35;;
22883;SDS011;13386;24.786;110.488;2023-03-21T06:10:51;29.90;;;9.80;;
22883;SDS011;13386;24.786;110.488;2023-03-21T06:13:22;41.88;;;16.00;;
22883;SDS011;13386;24.786;110.488;2023-03-21T06:15:57;24.52;;;9.93;;
22883;SDS011;13386;24.786;110.488;2023-03-21T06:18:27;39.67;;;15.30;;
22883;SDS011;13386;24.786;110.488;2023-03-21T06:21:17;39.20;;;15.35;;
22883;SDS011;13386;24.786;110.488;2023-03-21T06:23:51;39.25;;;14.93;;
22883;SDS011;13386;24.786;110.488;2023-03-21T06:26:22;28.23;;;10.07;;
22883;SDS011;13386;24.786;110.488;2023-03-21T06:28:56;41.55;;;16.30;;
22883;SDS011;13386;24.786;110.488;2023-03-21T06:31:28;36.08;;;15.23;;
22883;SDS011;13386;24.786;110.488;2023-03-21T06:34:02;41.67;;;14.25;;
22883;SDS011;13386;24.786;110.488;2023-03-21T06:36:32;35.63;;;14.07;;
22883;SDS011;13386;24.786;110.488;2023-03-21T06:39:02;32.60;;;12.30;;
22883;SDS011;13386;24.786;110.488;2023-03-21T06:41:39;28.65;;;10.55;;
22883;SDS011;13386;24.786;110.488;2023-03-21T06:44:10;44.90;;;17.02;;
22883;SDS011;13386;24.786;110.488;2023-03-21T06:46:51;41.92;;;15.90;;
22883;SDS011;13386;24.786;110.488;2023-03-21T06:49:23;46.75;;;17.50;;
22883;SDS011;13386;24.786;110.488;2023-03-21T06:51:55;48.97;;;18.40;;
22883;SDS011;13386;24.786;110.488;2023-03-21T06:54:25;31.45;;;11.35;;
22883;SDS011;13386;24.786;110.488;2023-03-21T06:57:09;36.45;;;13.15;;
22883;SDS011;13386;24.786;110.488;2023-03-21T06:59:41;38.53;;;15.90;;
22883;SDS011;13386;24.786;110.488;2023-03-21T07:02:20;42.03;;;18.10;;
22883;SDS011;13386;24.786;110.488;2023-03-21T07:05:14;44.60;;;16.85;;
22883;SDS011;13386;24.786;110.488;2023-03-21T07:07:45;42.20;;;15.45;;
22883;SDS011;13386;24.786;110.488;2023-03-21T07:10:15;44.50;;;18.58;;
22883;SDS011;13386;24.786;110.488;2023-03-21T07:12:57;41.88;;;17.95;;
22883;SDS011;13386;24.786;110.488;2023-03-21T07:15:51;39.50;;;15.60;;
22883;SDS011;13386;24.786;110.488;2023-03-21T07:20:58;36.47;;;15.10;;
22883;SDS011;13386;24.786;110.488;2023-03-21T07:23:28;46.20;;;17.00;;
22883;SDS011;13386;24.786;110.488;2023-03-21T07:25:59;42.78;;;17.95;;
22883;SDS011;13386;24.786;110.488;2023-03-21T07:28:30;40.55;;;16.42;;
22883;SDS011;13386;24.786;110.488;2023-03-21T07:31:02;47.10;;;17.92;;
22883;SDS011;13386;24.786;110.488;2023-03-21T07:33:35;42.80;;;15.23;;
22883;SDS011;13386;24.786;110.488;2023-03-21T07:36:13;42.08;;;15.85;;
22883;SDS011;13386;24.786;110.488;2023-03-21T07:38:50;41.88;;;17.08;;
22883;SDS011;13386;24.786;110.488;2023-03-21T07:41:23;29.95;;;12.18;;
22883;SDS011;13386;24.786;110.488;2023-03-21T07:44:01;37.17;;;14.95;;
22883;SDS011;13386;24.786;110.488;2023-03-21T07:49:21;41.25;;;17.05;;
22883;SDS011;13386;24.786;110.488;2023-03-21T07:51:55;37.35;;;14.30;;
22883;SDS011;13386;24.786;110.488;2023-03-21T07:54:27;43.15;;;15.27;;
22883;SDS011;13386;24.786;110.488;2023-03-21T07:56:57;43.30;;;17.58;;
22883;SDS011;13386;24.786;110.488;2023-03-21T07:59:27;41.00;;;16.73;;
22883;SDS011;13386;24.786;110.488;2023-03-21T08:01:58;49.33;;;17.83;;
22883;SDS011;13386;24.786;110.488;2023-03-21T08:04:29;38.40;;;17.42;;
22883;SDS011;13386;24.786;110.488;2023-03-21T08:07:02;40.70;;;18.90;;
22883;SDS011;13386;24.786;110.488;2023-03-21T08:09:32;40.97;;;18.27;;
22883;SDS011;13386;24.786;110.488;2023-03-21T08:12:05;43.20;;;18.27;;
22883;SDS011;13386;24.786;110.488;2023-03-21T08:14:36;39.05;;;17.45;;
22883;SDS011;13386;24.786;110.488;2023-03-21T08:17:07;42.03;;;18.20;;
22883;SDS011;13386;24.786;110.488;2023-03-21T08:19:37;42.95;;;15.60;;
22883;SDS011;13386;24.786;110.488;2023-03-21T08:22:09;45.22;;;17.38;;
22883;SDS011;13386;24.786;110.488;2023-03-21T08:24:40;44.22;;;18.88;;
22883;SDS011;13386;24.786;110.488;2023-03-21T08:27:10;42.95;;;16.65;;
22883;SDS011;13386;24.786;110.488;2023-03-21T08:29:41;42.20;;;17.55;;
22883;SDS011;13386;24.786;110.488;2023-03-21T08:32:11;45.88;;;17.70;;
22883;SDS011;13386;24.786;110.488;2023-03-21T08:34:42;43.92;;;18.88;;
22883;SDS011;13386;24.786;110.488;2023-03-21T08:37:14;45.78;;;18.98;;
22883;SDS011;13386;24.786;110.488;2023-03-21T08:39:45;49.80;;;20.08;;
22883;SDS011;13386;24.786;110.488;2023-03-21T08:42:15;45.92;;;16.83;;
22883;SDS011;13386;24.786;110.488;2023-03-21T08:44:45;43.50;;;18.10;;
22883;SDS011;13386;24.786;110.488;2023-03-21T08:47:16;42.03;;;16.90;;
22883;SDS011;13386;24.786;110.488;2023-03-21T08:49:50;46.53;;;18.17;;
22883;SDS011;13386;24.786;110.488;2023-03-21T08:52:22;45.83;;;18.20;;
22883;SDS011;13386;24.786;110.488;2023-03-21T08:54:53;51.25;;;19.45;;
22883;SDS011;13386;24.786;110.488;2023-03-21T08:57:26;44.72;;;17.20;;
22883;SDS011;13386;24.786;110.488;2023-03-21T08:59:56;43.35;;;19.17;;
22883;SDS011;13386;24.786;110.488;2023-03-21T09:02:26;43.85;;;16.90;;
22883;SDS011;13386;24.786;110.488;2023-03-21T09:04:56;46.90;;;20.65;;
22883;SDS011;13386;24.786;110.488;2023-03-21T09:07:28;34.25;;;14.55;;
22883;SDS011;13386;24.786;110.488;2023-03-21T09:09:59;45.28;;;19.55;;
22883;SDS011;13386;24.786;110.488;2023-03-21T09:12:30;53.08;;;21.08;;
22883;SDS011;13386;24.786;110.488;2023-03-21T09:15:01;56.65;;;22.65;;
22883;SDS011;13386;24.786;110.488;2023-03-21T09:17:32;45.63;;;18.70;;
22883;SDS011;13386;24.786;110.488;2023-03-21T09:20:04;47.10;;;19.88;;
22883;SDS011;13386;24.786;110.488;2023-03-21T09:22:38;41.88;;;17.55;;
22883;SDS011;13386;24.786;110.488;2023-03-21T09:25:11;41.10;;;17.50;;
22883;SDS011;13386;24.786;110.488;2023-03-21T09:27:43;46.42;;;18.50;;
22883;SDS011;13386;24.786;110.488;2023-03-21T09:30:14;43.17;;;18.05;;
22883;SDS011;13386;24.786;110.488;2023-03-21T09:32:45;50.40;;;19.38;;
22883;SDS011;13386;24.786;110.488;2023-03-21T09:35:16;43.92;;;18.48;;
22883;SDS011;13386;24.786;110.488;2023-03-21T09:37:48;49.97;;;19.65;;
22883;SDS011;13386;24.786;110.488;2023-03-21T09:40:26;43.72;;;17.40;;
22883;SDS011;13386;24.786;110.488;2023-03-21T09:43:01;46.22;;;19.08;;
22883;SDS011;13386;24.786;110.488;2023-03-21T09:45:36;45.95;;;18.60;;
22883;SDS011;13386;24.786;110.488;2023-03-21T09:48:11;45.15;;;19.95;;
22883;SDS011;13386;24.786;110.488;2023-03-21T09:50:45;50.03;;;18.48;;
22883;SDS011;13386;24.786;110.488;2023-03-21T09:53:19;48.60;;;16.73;;
22883;SDS011;13386;24.786;110.488;2023-03-21T09:55:51;41.42;;;17.13;;
22883;SDS011;13386;24.786;110.488;2023-03-21T09:58:23;48.50;;;20.60;;
22883;SDS011;13386;24.786;110.488;2023-03-21T10:00:56;46.40;;;19.50;;
22883;SDS011;13386;24.786;110.488;2023-03-21T10:03:33;46.78;;;19.33;;
22883;SDS011;13386;24.786;110.488;2023-03-21T10:06:03;49.63;;;20.35;;
22883;SDS011;13386;24.786;110.488;2023-03-21T10:08:37;45.88;;;18.42;;
22883;SDS011;13386;24.786;110.488;2023-03-21T10:11:09;43.92;;;18.65;;
22883;SDS011;13386;24.786;110.488;2023-03-21T10:13:42;47.25;;;18.75;;
22883;SDS011;13386;24.786;110.488;2023-03-21T10:16:14;49.05;;;19.30;;
22883;SDS011;13386;24.786;110.488;2023-03-21T10:18:45;53.40;;;19.98;;
22883;SDS011;13386;24.786;110.488;2023-03-21T10:21:19;51.40;;;19.88;;
22883;SDS011;13386;24.786;110.488;2023-03-21T10:23:55;50.85;;;19.88;;
22883;SDS011;13386;24.786;110.488;2023-03-21T10:26:26;53.15;;;20.25;;
22883;SDS011;13386;24.786;110.488;2023-03-21T10:28:58;54.40;;;20.92;;
22883;SDS011;13386;24.786;110.488;2023-03-21T10:31:30;49.72;;;20.52;;
22883;SDS011;13386;24.786;110.488;2023-03-21T10:34:03;52.58;;;20.70;;
22883;SDS011;13386;24.786;110.488;2023-03-21T10:36:34;45.70;;;18.90;;
22883;SDS011;13386;24.786;110.488;2023-03-21T10:39:07;50.55;;;20.55;;
22883;SDS011;13386;24.786;110.488;2023-03-21T10:41:40;50.63;;;20.50;;
22883;SDS011;13386;24.786;110.488;2023-03-21T10:44:11;53.47;;;21.17;;
22883;SDS011;13386;24.786;110.488;2023-03-21T10:46:48;45.83;;;19.98;;
22883;SDS011;13386;24.786;110.488;2023-03-21T10:49:19;47.85;;;20.35;;
22883;SDS011;13386;24.786;110.488;2023-03-21T10:51:57;48.83;;;19.95;;
22883;SDS011;13386;24.786;110.488;2023-03-21T10:54:30;50.65;;;20.92;;
22883;SDS011;13386;24.786;110.488;2023-03-21T10:57:07;52.40;;;21.55;;
22883;SDS011;13386;24.786;110.488;2023-03-21T10:59:59;89.78;;;24.65;;
22883;SDS011;13386;24.786;110.488;2023-03-21T11:02:40;67.68;;;22.60;;
22883;SDS011;13386;24.786;110.488;2023-03-21T11:05:16;51.88;;;20.33;;
22883;SDS011;13386;24.786;110.488;2023-03-21T11:07:54;47.92;;;19.73;;
22883;SDS011;13386;24.786;110.488;2023-03-21T11:10:29;46.83;;;20.02;;
22883;SDS011;13386;24.786;110.488;2023-03-21T11:13:01;60.33;;;22.30;;
22883;SDS011;13386;24.786;110.488;2023-03-21T11:15:32;52.55;;;21.42;;
22883;SDS011;13386;24.786;110.488;2023-03-21T11:18:17;46.97;;;20.27;;
22883;SDS011;13386;24.786;110.488;2023-03-21T11:20:49;63.03;;;21.92;;
22883;SDS011;13386;24.786;110.488;2023-03-21T11:23:20;49.13;;;21.13;;
22883;SDS011;13386;24.786;110.488;2023-03-21T11:25:52;56.22;;;22.60;;
22883;SDS011;13386;24.786;110.488;2023-03-21T11:28:24;52.33;;;22.13;;
22883;SDS011;13386;24.786;110.488;2023-03-21T11:30:59;55.80;;;22.42;;
22883;SDS011;13386;24.786;110.488;2023-03-21T11:33:31;52.88;;;22.05;;
22883;SDS011;13386;24.786;110.488;2023-03-21T11:36:04;50.92;;;21.30;;
22883;SDS011;13386;24.786;110.488;2023-03-21T11:38:35;50.15;;;22.02;;
22883;SDS011;13386;24.786;110.488;2023-03-21T11:41:16;58.92;;;22.42;;
22883;SDS011;13386;24.786;110.488;2023-03-21T11:43:59;53.17;;;23.02;;
22883;SDS011;13386;24.786;110.488;2023-03-21T11:46:30;44.30;;;20.20;;
22883;SDS011;13386;24.786;110.488;2023-03-21T11:49:00;54.92;;;22.52;;
22883;SDS011;13386;24.786;110.488;2023-03-21T11:51:31;56.83;;;22.92;;
22883;SDS011;13386;24.786;110.488;2023-03-21T11:54:06;51.97;;;21.30;;
22883;SDS011;13386;24.786;110.488;2023-03-21T11:56:46;54.00;;;22.80;;
22883;SDS011;13386;24.786;110.488;2023-03-21T11:59:19;55.03;;;22.70;;
22883;SDS011;13386;24.786;110.488;2023-03-21T12:01:59;62.17;;;23.02;;
22883;SDS011;13386;24.786;110.488;2023-03-21T12:04:38;55.35;;;22.88;;
22883;SDS011;13386;24.786;110.488;2023-03-21T12:07:21;60.33;;;22.30;;
22883;SDS011;13386;24.786;110.488;2023-03-21T12:09:55;48.67;;;21.52;;
22883;SDS011;13386;24.786;110.488;2023-03-21T12:12:31;48.38;;;22.27;;
22883;SDS011;13386;24.786;110.488;2023-03-21T12:15:05;52.38;;;21.88;;
22883;SDS011;13386;24.786;110.488;2023-03-21T12:17:46;52.70;;;21.20;;
22883;SDS011;13386;24.786;110.488;2023-03-21T12:23:14;74.13;;;26.65;;
22883;SDS011;13386;24.786;110.488;2023-03-21T12:25:48;63.97;;;23.63;;
22883;SDS011;13386;24.786;110.488;2023-03-21T12:28:26;57.92;;;24.10;;
22883;SDS011;13386;24.786;110.488;2023-03-21T12:31:04;58.67;;;23.13;;
22883;SDS011;13386;24.786;110.488;2023-03-21T12:33:45;50.65;;;23.27;;
22883;SDS011;13386;24.786;110.488;2023-03-21T12:36:21;59.05;;;23.80;;
22883;SDS011;13386;24.786;110.488;2023-03-21T12:38:56;55.75;;;24.23;;
22883;SDS011;13386;24.786;110.488;2023-03-21T12:41:32;54.05;;;23.17;;
22883;SDS011;13386;24.786;110.488;2023-03-21T12:44:04;57.20;;;25.85;;
22883;SDS011;13386;24.786;110.488;2023-03-21T12:46:38;58.53;;;23.98;;
22883;SDS011;13386;24.786;110.488;2023-03-21T12:49:18;55.08;;;23.30;;
22883;SDS011;13386;24.786;110.488;2023-03-21T12:51:52;56.22;;;24.40;;
22883;SDS011;13386;24.786;110.488;2023-03-21T12:54:27;56.65;;;22.55;;
22883;SDS011;13386;24.786;110.488;2023-03-21T12:56:59;57.17;;;23.40;;
22883;SDS011;13386;24.786;110.488;2023-03-21T12:59:35;61.33;;;24.48;;
22883;SDS011;13386;24.786;110.488;2023-03-21T13:02:13;52.25;;;22.23;;
22883;SDS011;13386;24.786;110.488;2023-03-21T13:04:53;53.15;;;23.23;;
22883;SDS011;13386;24.786;110.488;2023-03-21T13:07:26;62.28;;;24.45;;
22883;SDS011;13386;24.786;110.488;2023-03-21T13:10:02;60.05;;;25.83;;
22883;SDS011;13386;24.786;110.488;2023-03-21T13:12:37;55.05;;;23.50;;
22883;SDS011;13386;24.786;110.488;2023-03-21T13:18:09;59.95;;;24.33;;
22883;SDS011;13386;24.786;110.488;2023-03-21T13:20:42;50.35;;;23.52;;
22883;SDS011;13386;24.786;110.488;2023-03-21T13:23:16;55.42;;;22.63;;
22883;SDS011;13386;24.786;110.488;2023-03-21T13:25:47;55.50;;;24.30;;
22883;SDS011;13386;24.786;110.488;2023-03-21T13:28:22;58.65;;;24.38;;
22883;SDS011;13386;24.786;110.488;2023-03-21T13:31:06;61.35;;;24.52;;
22883;SDS011;13386;24.786;110.488;2023-03-21T13:33:51;59.42;;;23.63;;
22883;SDS011;13386;24.786;110.488;2023-03-21T13:36:23;61.95;;;24.15;;
22883;SDS011;13386;24.786;110.488;2023-03-21T13:38:59;58.08;;;24.65;;
22883;SDS011;13386;24.786;110.488;2023-03-21T13:41:32;49.22;;;23.40;;
22883;SDS011;13386;24.786;110.488;2023-03-21T13:44:07;52.72;;;24.23;;
22883;SDS011;13386;24.786;110.488;2023-03-21T13:46:42;55.92;;;24.38;;
22883;SDS011;13386;24.786;110.488;2023-03-21T13:49:24;50.10;;;22.67;;
22883;SDS011;13386;24.786;110.488;2023-03-21T13:51:54;52.13;;;22.80;;
22883;SDS011;13386;24.786;110.488;2023-03-21T14:00:15;59.97;;;23.27;;
22883;SDS011;13386;24.786;110.488;2023-03-21T14:02:54;59.08;;;24.30;;
22883;SDS011;13386;24.786;110.488;2023-03-21T14:05:34;57.40;;;24.08;;
22883;SDS011;13386;24.786;110.488;2023-03-21T14:08:07;54.13;;;24.43;;
22883;SDS011;13386;24.786;110.488;2023-03-21T14:10:44;64.32;;;23.95;;
22883;SDS011;13386;24.786;110.488;2023-03-21T14:15:51;53.92;;;23.73;;
22883;SDS011;13386;24.786;110.488;2023-03-21T14:18:22;56.15;;;24.75;;
22883;SDS011;13386;24.786;110.488;2023-03-21T14:20:57;63.47;;;27.40;;
22883;SDS011;13386;24.786;110.488;2023-03-21T14:23:29;68.60;;;27.67;;
22883;SDS011;13386;24.786;110.488;2023-03-21T14:26:01;70.18;;;28.35;;
22883;SDS011;13386;24.786;110.488;2023-03-21T14:28:35;64.72;;;28.90;;
22883;SDS011;13386;24.786;110.488;2023-03-21T14:31:06;72.60;;;28.52;;
22883;SDS011;13386;24.786;110.488;2023-03-21T14:33:44;69.38;;;29.30;;
22883;SDS011;13386;24.786;110.488;2023-03-21T14:36:22;61.60;;;26.42;;
22883;SDS011;13386;24.786;110.488;2023-03-21T14:38:54;58.78;;;25.90;;
22883;SDS011;13386;24.786;110.488;2023-03-21T14:41:42;68.95;;;28.02;;
22883;SDS011;13386;24.786;110.488;2023-03-21T14:44:17;72.95;;;31.10;;
22883;SDS011;13386;24.786;110.488;2023-03-21T14:46:52;74.65;;;32.30;;
22883;SDS011;13386;24.786;110.488;2023-03-21T14:49:26;68.70;;;27.73;;
22883;SDS011;13386;24.786;110.488;2023-03-21T14:52:00;70.97;;;29.48;;
22883;SDS011;13386;24.786;110.488;2023-03-21T14:54:32;78.75;;;30.98;;
22883;SDS011;13386;24.786;110.488;2023-03-21T14:57:13;75.95;;;30.52;;
22883;SDS011;13386;24.786;110.488;2023-03-21T14:59:46;75.65;;;29.98;;
22883;SDS011;13386;24.786;110.488;2023-03-21T15:02:24;71.07;;;30.08;;
22883;SDS011;13386;24.786;110.488;2023-03-21T15:05:07;74.90;;;31.35;;